| |
Missouri Department of Transportation

Social Media Facebook Twitter Flickr Blog YouTube RSS

Current AWOS Information

 
AWOS Home - General Info for all Airports
Current AWOS for all Airports - Current METAR for all Airports
Glossary - Disclaimer - Other Links


SULLIVAN--SULLIVAN REGIONAL--KUUV
 
Recent AWOS History
 
07/23/14     06:52 AM CDT      11:52 GMT
Air Temperature 78°F (26°C ) 1st Cloud Layer Overcast at 900 feet
Dew Point 73°F (23°C) 2nd Cloud Layer  
Barometric Pressure 30.07 in Hg. 3rd Cloud Layer  
Wind Speed 3 mph (3 knots) Density Altitude 2200 feet
Peak Wind Gusts   Variable Wind Directions  
Wind Direction Quadrant(240°) Variable Visibility  
Visibility 10 statute miles  

Thunderstorm and Precipitation Identification: 
Thunderstorm Remarks: 

Current METAR Record: METAR KUUV 231152Z AUTO 25003KT 10SM OVC009 25/23 A3007 RMK AO2

 

 

 

About Us
How Do I...
Contact Us
Missouri Department of Transportation
Central Office
105 W. Capitol Avenue
Jefferson City, MO 65102
1-888-ASK-MODOT (275-6636)
1-866-831-6277 (Motor Carrier Services)
Drivers License Offices
horz_bar
| | |
Missouri State Government
© 2013 Missouri Department of Transportation. All Rights Reserved.   Privacy Policy.
 
 
 
 
RSS FeedYoutubeBlogFlickrTwitter Facebook